Share

Arthur, IN

7:00 AM EDT on April 24, 2014 (GMT -0400)
Huntingburg (KHNB) Elev 528 ft | 38.25 °N, 86.95 °W | Change Station

Current weather conditions updated 5 minutes ago

Overcast
Overcast
50 °F
Feels Like 50 °F
N
9
Wind Variable Wind from SSE
Sunrise 7:00 AM
Sunset 8:33 PM
Moon Waning Crescent

Today is forecast to be Much Warmer than yesterday. Showers and possibly some thunder overnight tonight.

Pressure 30.00 in
Visibility 10.0 miles
Clouds Overcast 12000 ft
Dew Point 34 °F
Humidity 54%
Rainfall 0.00 in
Snow Depth Not available.
UV 0 out of 16
Pollen 9.90 out of 12
Air Quality Not available.
Flu Activity Sporadic
METAR KHNB 241055Z AUTO 15008KT 10SM OVC120 10/01 A3000 RMK AO1

More Conditions Fewer Conditions

Pressure 30.00 in
Visibility 10.0 miles
Clouds Overcast 12000 ft
Dew Point 34 °F
Humidity 54%
Rainfall 0.00 in
Snow Depth Not available.
UV 0 out of 16
Pollen 9.90 out of 12
Air Quality Not available.
Flu Activity Sporadic
METAR KHNB 241055Z AUTO 15008KT 10SM OVC120 10/01 A3000 RMK AO1

More Conditions Fewer Conditions

10-Day Weather Forecast

Almanac

Astronomy

Apr. 24, 2014 Rise Set
Actual Time 7:00 AM EDT 8:33 PM EDT
Civil Twilight 6:32 AM EDT 9:01 PM EDT
Nautical Twilight 5:59 AM EDT 9:35 PM EDT
Astronomical Twilight 5:23 AM EDT 10:11 PM EDT
Moon 4:07 AM EDT 3:52 PM EDT
Length of Visible Light 14h 29m
Length of Day
13h 33m
Tomorrow will be 2m 14s longer.
Waning Crescent, 27% of the Moon is Illuminated
Today
Waning Crescent
Apr 29
New
May 6
First Quarter
May 14
Full
May 21
Last Quarter

Today's Extremes

State Highs State Lows

Community

  • Stacked
    Stacked
  • clouds approaching Red Sox Nation
    clouds approaching Red Sox Nation
  • Balance
    Balance
  • Nestled In
    Nestled In
  • Stunning Sunrise
    Stunning Sunrise

WunderPhotos

Upload Photos

1,704,584 photos uploaded!

WunderBlogs® & News

Nearby

Snow Depth

Station Depth Elevation
No new snow has been reported.

Coastal Water Temperatures

Place Temperature
No Stations Reporting

Earthquake Activity

City Distance Mag. Time & Date
No recent earthquake activity has been reported nearby.
Minimum magnitude displayed is 2.5.

Nearby Weather Stations

Station Location Temp. Windchill Dew Point Humidity Wind Precip. Elev Updated Type
Chandler, IN 47.1 °F 47 °F 38 °F 70% East  at  0.0 mph 0.00 in / hr 427 ft 5:55 AM CDT Normal

Show More Stations Show Fewer Stations

What do you think?

We're not finished. Please let us know what you like, what you don't like, and what you are still missing.